createdAt,value
2019-05-22T05:03:08.603Z,17.63
2019-05-22T05:05:58.885Z,18.77
2019-05-22T05:08:49.595Z,17.40
2019-05-22T05:11:40.584Z,19.43
2019-05-22T05:14:36.950Z,17.83
2019-05-22T05:17:27.899Z,16.83
2019-05-22T05:20:22.528Z,18.33
2019-05-22T05:23:08.882Z,19.13
2019-05-22T05:25:58.677Z,18.23
2019-05-22T05:28:47.458Z,16.70
2019-05-22T05:31:42.374Z,20.27
2019-05-22T05:35:04.450Z,16.73
2019-05-22T05:37:54.441Z,16.57
2019-05-22T05:40:45.731Z,17.03
2019-05-22T05:43:35.600Z,18.57
2019-05-22T05:46:27.532Z,16.73
2019-05-22T05:49:16.372Z,18.33
2019-05-22T05:52:07.028Z,17.73
2019-05-22T05:54:56.170Z,17.20
2019-05-22T05:58:30.942Z,18.10
2019-05-22T06:01:39.190Z,16.83
2019-05-22T06:04:35.447Z,17.00
2019-05-22T06:07:26.192Z,17.90
2019-05-22T06:10:56.394Z,17.30
2019-05-22T06:13:47.103Z,16.10
2019-05-22T06:17:20.404Z,16.13
2019-05-22T06:20:13.414Z,14.77
2019-05-22T06:23:42.261Z,16.10
2019-05-22T06:27:22.673Z,15.30
2019-05-22T06:30:17.935Z,16.03
2019-05-22T06:33:38.031Z,14.73
2019-05-22T06:36:28.034Z,16.70
2019-05-22T06:39:19.628Z,16.53
2019-05-22T06:42:10.751Z,13.90
2019-05-22T06:45:00.528Z,16.03
2019-05-22T06:47:50.723Z,14.73
2019-05-22T06:50:41.132Z,17.23
2019-05-22T06:53:30.718Z,13.73
2019-05-22T06:56:23.589Z,14.90
2019-05-22T06:59:12.423Z,14.30
2019-05-22T07:02:07.946Z,16.60
2019-05-22T07:04:58.833Z,13.77
2019-05-22T07:07:48.769Z,14.57
2019-05-22T07:10:39.015Z,14.23
2019-05-22T07:13:29.905Z,14.50
2019-05-22T07:16:19.885Z,15.40
2019-05-22T07:19:12.203Z,15.13
2019-05-22T07:22:04.702Z,15.27
2019-05-22T07:24:55.527Z,14.77
2019-05-22T07:27:46.222Z,13.40
2019-05-22T07:30:36.050Z,12.90
2019-05-22T07:33:25.959Z,14.90
2019-05-22T07:36:17.472Z,13.07
2019-05-22T07:39:08.742Z,11.97
2019-05-22T07:41:58.154Z,12.40
2019-05-22T07:44:49.295Z,13.77
2019-05-22T07:47:39.690Z,13.77
2019-05-22T07:50:31.393Z,12.13
2019-05-22T07:53:21.703Z,11.87
2019-05-22T07:56:12.620Z,12.80
2019-05-22T07:59:02.423Z,12.80
2019-05-22T08:01:52.582Z,12.27
2019-05-22T08:04:43.666Z,10.47
2019-05-22T08:07:35.545Z,12.43
2019-05-22T08:10:26.224Z,12.67
2019-05-22T08:13:16.941Z,12.53
2019-05-22T08:16:09.301Z,12.70
2019-05-22T08:18:59.031Z,13.57
2019-05-22T08:21:48.979Z,12.10
2019-05-22T08:24:39.228Z,12.33
2019-05-22T08:27:28.583Z,11.70
2019-05-22T08:30:19.102Z,12.23
2019-05-22T08:33:12.374Z,12.87
2019-05-22T08:36:03.115Z,12.67
2019-05-22T08:38:53.688Z,11.97
2019-05-22T08:41:43.975Z,9.90
2019-05-22T08:44:34.703Z,12.17
2019-05-22T08:47:24.784Z,10.40
2019-05-22T08:50:16.622Z,11.70
2019-05-22T08:53:07.025Z,10.23
2019-05-22T08:55:59.099Z,11.70
2019-05-22T08:58:48.805Z,8.50
2019-05-22T09:01:40.418Z,10.07
2019-05-22T09:04:31.206Z,10.77
2019-05-22T09:07:21.745Z,11.10
2019-05-22T09:10:12.512Z,11.33
2019-05-22T09:13:05.698Z,10.27
2019-05-22T09:16:01.805Z,11.10
2019-05-22T09:18:49.405Z,8.80
2019-05-22T09:21:40.648Z,9.47
2019-05-22T09:24:31.687Z,10.13
2019-05-22T09:27:21.658Z,10.53
2019-05-22T09:30:11.349Z,11.23
2019-05-22T09:33:03.262Z,10.50
2019-05-22T09:35:53.374Z,10.67
2019-05-22T09:38:43.919Z,11.20
2019-05-22T09:41:34.273Z,11.40
2019-05-22T09:44:23.873Z,10.90
2019-05-22T09:47:15.476Z,10.97
2019-05-22T09:50:06.659Z,12.47
2019-05-22T09:52:58.072Z,13.47
2019-05-22T09:55:47.784Z,11.53
2019-05-22T09:58:38.301Z,12.50
2019-05-22T10:01:27.730Z,13.10
2019-05-22T10:04:23.089Z,12.50
2019-05-22T10:07:13.304Z,13.80
2019-05-22T10:10:05.548Z,13.03
2019-05-22T10:13:02.356Z,14.60
2019-05-22T10:15:52.699Z,14.97
2019-05-22T10:18:43.348Z,13.80
2019-05-22T10:21:33.270Z,12.70
2019-05-22T10:24:23.150Z,13.27
2019-05-22T10:27:13.827Z,12.57
2019-05-22T10:30:03.342Z,13.50
2019-05-22T10:32:53.225Z,13.60
2019-05-22T10:35:43.474Z,13.93
2019-05-22T10:38:33.153Z,14.37
2019-05-22T10:41:23.778Z,12.90
2019-05-22T10:44:13.767Z,13.63
2019-05-22T10:47:03.206Z,13.90
2019-05-22T10:49:52.376Z,12.50
2019-05-22T10:52:42.977Z,14.27
2019-05-22T10:55:32.915Z,10.77
2019-05-22T10:58:22.747Z,12.30
2019-05-22T11:03:46.435Z,11.90
2019-05-22T11:06:37.946Z,11.90
2019-05-22T11:09:28.208Z,10.63
2019-05-22T11:12:18.290Z,11.40
2019-05-22T11:15:09.758Z,10.40
2019-05-22T11:17:59.343Z,9.30
2019-05-22T11:20:51.946Z,10.13
2019-05-22T11:23:52.274Z,11.63
2019-05-22T11:26:32.531Z,10.13
2019-05-22T11:29:22.767Z,9.30
2019-05-22T11:32:15.199Z,10.27
2019-05-22T11:35:06.523Z,9.73
2019-05-22T11:37:56.559Z,9.10
2019-05-22T11:40:47.059Z,10.80
2019-05-22T11:43:36.621Z,10.20
2019-05-22T11:46:24.958Z,9.30
2019-05-22T11:49:13.313Z,8.93
2019-05-22T11:52:02.375Z,9.17
2019-05-22T11:54:53.143Z,8.87
2019-05-22T11:57:43.597Z,9.20
2019-05-22T12:03:28.033Z,8.20
2019-05-22T12:06:19.755Z,7.63
2019-05-22T12:09:11.927Z,7.60
2019-05-22T12:12:01.438Z,8.60
2019-05-22T12:14:50.855Z,8.30
2019-05-22T12:17:39.735Z,8.40
2019-05-22T12:20:29.450Z,7.67
2019-05-22T12:23:18.071Z,8.13
2019-05-22T12:26:08.274Z,7.80
2019-05-22T12:28:57.195Z,6.90
2019-05-22T12:31:48.499Z,7.40
2019-05-22T12:34:38.647Z,6.53
2019-05-22T12:37:28.512Z,7.80
2019-05-22T12:40:20.287Z,6.87
2019-05-22T12:43:10.327Z,6.30
2019-05-22T12:45:59.129Z,7.80
2019-05-22T12:48:48.070Z,7.43
2019-05-22T12:51:36.439Z,6.40
2019-05-22T12:54:25.340Z,6.90
2019-05-22T12:57:13.518Z,6.70
2019-05-22T13:00:03.074Z,5.93
2019-05-22T13:03:01.151Z,6.43
2019-05-22T13:05:52.006Z,6.73
2019-05-22T13:08:41.551Z,6.53
2019-05-22T13:11:31.406Z,6.00
2019-05-22T13:14:21.147Z,7.30
2019-05-22T13:17:12.551Z,5.87
2019-05-22T13:20:03.150Z,5.80
2019-05-22T13:22:54.909Z,6.47
2019-05-22T13:25:44.655Z,6.73
2019-05-22T13:28:33.904Z,5.40
2019-05-22T13:31:23.280Z,7.20
2019-05-22T13:34:15.141Z,5.50
2019-05-22T13:37:05.097Z,7.07
2019-05-22T13:39:53.959Z,7.83
2019-05-22T13:42:44.348Z,6.97
2019-05-22T13:45:34.318Z,6.27
2019-05-22T13:48:24.331Z,6.50
2019-05-22T13:51:15.205Z,8.03
2019-05-22T13:54:03.994Z,6.40
2019-05-22T13:56:52.082Z,5.53
2019-05-22T13:59:40.396Z,5.80
2019-05-22T14:02:29.819Z,5.33
2019-05-22T14:05:20.536Z,6.17
2019-05-22T14:08:09.358Z,5.53
2019-05-22T14:11:00.636Z,5.40
2019-05-22T14:13:49.926Z,5.57
2019-05-22T14:16:48.870Z,5.27
2019-05-22T14:19:29.419Z,5.40
2019-05-22T14:22:19.216Z,5.47
2019-05-22T14:25:08.139Z,4.17
2019-05-22T14:27:56.922Z,3.70
2019-05-22T14:30:46.161Z,4.27
2019-05-22T14:33:35.003Z,4.43
2019-05-22T14:36:24.142Z,4.20
2019-05-22T14:39:14.424Z,4.13
2019-05-22T14:42:03.716Z,4.20
2019-05-22T14:44:53.162Z,4.73
2019-05-22T14:47:42.177Z,3.40
2019-05-22T14:50:32.889Z,3.43
2019-05-22T14:53:22.463Z,4.00
2019-05-22T14:56:11.543Z,3.57
2019-05-22T14:59:00.222Z,3.83
2019-05-22T15:01:49.134Z,3.00
2019-05-22T15:04:39.346Z,4.27
2019-05-22T15:07:29.561Z,3.80
2019-05-22T15:10:19.630Z,4.00
2019-05-22T15:13:10.786Z,3.80
2019-05-22T15:15:58.985Z,3.90
2019-05-22T15:18:49.266Z,3.33
2019-05-22T15:21:38.246Z,3.60
2019-05-22T15:24:27.909Z,3.97
2019-05-22T15:27:18.291Z,4.93
2019-05-22T15:30:07.613Z,4.40
2019-05-22T15:33:00.658Z,5.00
2019-05-22T15:35:50.058Z,3.93
2019-05-22T15:38:42.027Z,4.00
2019-05-22T15:41:31.459Z,4.37
2019-05-22T15:44:21.187Z,5.20
2019-05-22T15:47:11.079Z,4.40
2019-05-22T15:50:00.151Z,4.47
2019-05-22T15:52:51.966Z,5.33
2019-05-22T15:55:42.457Z,5.20
2019-05-22T15:58:32.867Z,5.40
2019-05-22T16:01:22.527Z,5.80
2019-05-22T16:04:11.879Z,4.90
2019-05-22T16:07:01.293Z,5.53
2019-05-22T16:09:51.327Z,5.90
2019-05-22T16:12:41.279Z,5.00
2019-05-22T16:15:31.899Z,5.97
2019-05-22T16:18:22.386Z,5.37
2019-05-22T16:21:12.203Z,5.03
2019-05-22T16:24:01.162Z,5.70
2019-05-22T16:26:49.778Z,5.20
2019-05-22T16:29:44.406Z,6.20
2019-05-22T16:32:34.736Z,4.97
2019-05-22T16:35:24.078Z,5.43
2019-05-22T16:38:13.390Z,6.10
2019-05-22T16:41:03.159Z,5.43
2019-05-22T16:43:54.470Z,6.30
2019-05-22T16:46:44.905Z,5.80
2019-05-22T16:49:33.111Z,6.07
2019-05-22T16:52:23.788Z,6.30
2019-05-22T16:55:13.003Z,5.13
2019-05-22T16:58:07.307Z,5.50
2019-05-22T17:00:57.491Z,6.23
2019-05-22T17:03:48.194Z,5.87
2019-05-22T17:06:37.944Z,5.83
2019-05-22T17:09:27.862Z,6.17
2019-05-22T17:12:17.687Z,6.40
2019-05-22T17:15:08.811Z,6.43
2019-05-22T17:17:59.079Z,5.90
2019-05-22T17:20:48.909Z,5.87
2019-05-22T17:23:37.010Z,5.80
2019-05-22T17:26:27.094Z,5.47
2019-05-22T17:29:16.667Z,5.60
2019-05-22T17:32:12.511Z,5.23
2019-05-22T17:35:01.858Z,4.43
2019-05-22T17:37:51.542Z,4.83
2019-05-22T17:40:40.695Z,4.83
2019-05-22T17:43:31.371Z,5.20
2019-05-22T17:46:20.095Z,5.60
2019-05-22T17:49:09.815Z,4.70
2019-05-22T17:51:59.103Z,4.87
2019-05-22T17:54:51.379Z,4.60
2019-05-22T17:57:42.295Z,5.10
2019-05-22T18:00:38.359Z,4.90
2019-05-22T18:03:27.777Z,5.40
2019-05-22T18:06:17.623Z,6.13
2019-05-22T18:09:08.768Z,6.20
2019-05-22T18:11:57.765Z,5.47
2019-05-22T18:14:47.492Z,5.43
2019-05-22T18:17:36.073Z,4.90
2019-05-22T18:20:25.575Z,6.03
2019-05-22T18:23:14.682Z,6.30
2019-05-22T18:26:03.318Z,5.80
2019-05-22T18:28:52.639Z,5.20
2019-05-22T18:31:47.019Z,5.10
2019-05-22T18:34:37.602Z,5.63
2019-05-22T18:37:27.146Z,5.40
2019-05-22T18:40:16.711Z,6.13
2019-05-22T18:43:10.089Z,5.60
2019-05-22T18:45:59.182Z,5.73
2019-05-22T18:48:48.504Z,5.57
2019-05-22T18:51:37.327Z,5.40
2019-05-22T18:54:26.586Z,6.23
2019-05-22T18:57:15.700Z,6.58
2019-05-22T19:00:06.140Z,5.70
2019-05-22T19:03:02.223Z,5.67
2019-05-22T19:05:51.886Z,6.77
2019-05-22T19:08:42.894Z,6.30
2019-05-22T19:11:31.547Z,6.23
2019-05-22T19:14:20.335Z,6.30
2019-05-22T19:17:09.731Z,5.80
2019-05-22T19:19:58.794Z,6.73
2019-05-22T19:22:59.276Z,7.17
2019-05-22T19:25:40.258Z,6.17
2019-05-22T19:28:42.795Z,5.80
2019-05-22T19:31:21.610Z,6.70
2019-05-22T19:34:12.571Z,7.27
2019-05-22T19:37:01.942Z,5.53
2019-05-22T19:39:55.039Z,5.80
2019-05-22T19:42:44.282Z,6.90
2019-05-22T19:45:32.790Z,6.77
2019-05-22T19:48:21.746Z,5.87
2019-05-22T19:51:12.207Z,5.37
2019-05-22T19:54:05.009Z,7.13
2019-05-22T19:56:55.346Z,6.57
2019-05-22T19:59:44.546Z,6.53
2019-05-22T20:02:34.279Z,6.23
2019-05-22T20:05:24.094Z,6.17
2019-05-22T20:08:14.507Z,6.77
2019-05-22T20:11:04.138Z,6.43
2019-05-22T20:13:53.927Z,6.17
2019-05-22T20:16:42.162Z,5.77
2019-05-22T20:19:31.687Z,6.27
2019-05-22T20:22:20.943Z,5.93
2019-05-22T20:25:16.738Z,8.13
2019-05-22T20:28:06.327Z,7.37
2019-05-22T20:30:55.469Z,5.97
2019-05-22T20:33:46.494Z,7.57
2019-05-22T20:36:36.389Z,6.40
2019-05-22T20:39:28.899Z,5.90
2019-05-22T20:42:15.807Z,7.37
2019-05-22T20:45:07.458Z,7.33
2019-05-22T20:48:12.218Z,6.70
2019-05-22T20:51:01.461Z,6.77
2019-05-22T20:53:54.679Z,6.53
2019-05-22T20:56:44.817Z,7.70
2019-05-22T20:59:34.809Z,6.63
2019-05-22T21:02:23.844Z,7.70
2019-05-22T21:05:15.454Z,8.57
2019-05-22T21:08:07.091Z,7.03
2019-05-22T21:11:03.191Z,8.40
2019-05-22T21:13:52.842Z,8.20
2019-05-22T21:16:42.685Z,7.73
2019-05-22T21:19:33.111Z,8.20
2019-05-22T21:22:24.187Z,8.40
2019-05-22T21:25:13.353Z,7.87
2019-05-22T21:28:04.470Z,7.40
2019-05-22T21:30:54.490Z,8.30
2019-05-22T21:33:45.923Z,8.63
2019-05-22T21:36:35.845Z,8.87
2019-05-22T21:39:26.917Z,8.00
2019-05-22T21:42:16.850Z,8.67
2019-05-22T21:45:05.727Z,7.80
2019-05-22T21:47:54.710Z,7.53
2019-05-22T21:50:44.040Z,8.10
2019-05-22T21:53:33.643Z,7.40
2019-05-22T21:56:23.275Z,7.30
2019-05-22T21:59:12.748Z,7.13
2019-05-22T22:02:13.682Z,8.30
2019-05-22T22:05:03.325Z,8.43
2019-05-22T22:07:52.623Z,7.60
2019-05-22T22:10:42.072Z,8.07
2019-05-22T22:13:32.403Z,7.53
2019-05-22T22:16:22.874Z,8.27
2019-05-22T22:19:12.454Z,7.40
2019-05-22T22:22:03.870Z,8.70
2019-05-22T22:24:54.348Z,8.33
2019-05-22T22:27:43.726Z,7.50
2019-05-22T22:30:38.699Z,9.03
2019-05-22T22:33:32.758Z,7.97
2019-05-22T22:36:22.106Z,8.30
2019-05-22T22:39:12.795Z,7.43
2019-05-22T22:42:03.460Z,9.97
2019-05-22T22:44:54.344Z,8.80
2019-05-22T22:47:46.190Z,9.70
2019-05-22T22:50:35.936Z,9.03
2019-05-22T22:53:25.404Z,8.10
2019-05-22T22:56:17.313Z,10.60
2019-05-22T22:59:07.299Z,8.83
2019-05-22T23:01:58.747Z,8.07
2019-05-22T23:04:49.324Z,9.57
2019-05-22T23:07:39.117Z,8.60
2019-05-22T23:10:27.868Z,8.10
2019-05-22T23:13:17.948Z,10.00
2019-05-22T23:16:07.945Z,8.00
2019-05-22T23:19:06.630Z,9.07
2019-05-22T23:21:56.719Z,8.90
2019-05-22T23:24:46.371Z,7.50
2019-05-22T23:27:37.098Z,9.50
2019-05-22T23:30:27.604Z,8.47
2019-05-22T23:33:17.074Z,8.27
2019-05-22T23:36:05.783Z,8.23
2019-05-22T23:38:55.315Z,8.20
2019-05-22T23:41:47.127Z,7.97
2019-05-22T23:44:38.119Z,9.67
2019-05-22T23:47:27.091Z,10.73
2019-05-22T23:50:15.562Z,7.60
2019-05-22T23:53:05.071Z,9.07
2019-05-22T23:55:56.362Z,10.23
2019-05-22T23:58:52.882Z,8.67
